sensor_id;sensor_type;location;lat;lon;timestamp;pressure;altitude;pressure_sealevel;temperature;humidity
21182;BME280;10749;46.296;7.524;2024-01-10T00:01:00;95284.34;;;3.65;56.82
21182;BME280;10749;46.296;7.524;2024-01-10T00:03:25;95283.78;;;3.62;56.85
21182;BME280;10749;46.296;7.524;2024-01-10T00:05:50;95291.31;;;3.55;56.74
21182;BME280;10749;46.296;7.524;2024-01-10T00:08:16;95293.69;;;3.58;56.85
21182;BME280;10749;46.296;7.524;2024-01-10T00:10:41;95291.75;;;3.60;56.95
21182;BME280;10749;46.296;7.524;2024-01-10T00:13:06;95290.22;;;3.58;56.81
21182;BME280;10749;46.296;7.524;2024-01-10T00:15:31;95287.72;;;3.56;56.92
21182;BME280;10749;46.296;7.524;2024-01-10T00:17:57;95288.13;;;3.52;56.78
21182;BME280;10749;46.296;7.524;2024-01-10T00:20:22;95291.19;;;3.57;56.92
21182;BME280;10749;46.296;7.524;2024-01-10T00:22:47;95289.28;;;3.59;57.14
21182;BME280;10749;46.296;7.524;2024-01-10T00:25:13;95281.16;;;3.62;57.11
21182;BME280;10749;46.296;7.524;2024-01-10T00:27:38;95284.63;;;3.62;57.06
21182;BME280;10749;46.296;7.524;2024-01-10T00:30:04;95282.94;;;3.61;56.99
21182;BME280;10749;46.296;7.524;2024-01-10T00:32:30;95281.53;;;3.57;57.25
21182;BME280;10749;46.296;7.524;2024-01-10T00:34:55;95277.78;;;3.50;57.03
21182;BME280;10749;46.296;7.524;2024-01-10T00:37:20;95279.56;;;3.50;57.07
21182;BME280;10749;46.296;7.524;2024-01-10T00:39:46;95279.25;;;3.43;57.03
21182;BME280;10749;46.296;7.524;2024-01-10T00:42:11;95283.69;;;3.52;57.12
21182;BME280;10749;46.296;7.524;2024-01-10T00:44:36;95275.47;;;3.57;57.29
21182;BME280;10749;46.296;7.524;2024-01-10T00:47:02;95273.56;;;3.59;57.13
21182;BME280;10749;46.296;7.524;2024-01-10T00:49:27;95271.91;;;3.58;57.06
21182;BME280;10749;46.296;7.524;2024-01-10T00:51:52;95275.84;;;3.52;57.05
21182;BME280;10749;46.296;7.524;2024-01-10T00:54:17;95275.44;;;3.47;56.90
21182;BME280;10749;46.296;7.524;2024-01-10T00:56:43;95274.06;;;3.53;57.08
21182;BME280;10749;46.296;7.524;2024-01-10T00:59:08;95272.19;;;3.55;57.10
21182;BME280;10749;46.296;7.524;2024-01-10T01:01:33;95281.81;;;3.54;57.15
21182;BME280;10749;46.296;7.524;2024-01-10T01:03:58;95268.84;;;3.53;57.23
21182;BME280;10749;46.296;7.524;2024-01-10T01:06:24;95262.09;;;3.50;57.25
21182;BME280;10749;46.296;7.524;2024-01-10T01:08:49;95267.44;;;3.49;57.36
21182;BME280;10749;46.296;7.524;2024-01-10T01:11:14;95263.28;;;3.46;57.22
21182;BME280;10749;46.296;7.524;2024-01-10T01:13:40;95267.81;;;3.44;57.33
21182;BME280;10749;46.296;7.524;2024-01-10T01:16:05;95268.06;;;3.41;57.45
21182;BME280;10749;46.296;7.524;2024-01-10T01:18:31;95276.19;;;3.38;57.39
21182;BME280;10749;46.296;7.524;2024-01-10T01:20:56;95273.09;;;3.33;57.34
21182;BME280;10749;46.296;7.524;2024-01-10T01:23:21;95275.97;;;3.30;57.55
21182;BME280;10749;46.296;7.524;2024-01-10T01:25:46;95275.25;;;3.28;57.41
21182;BME280;10749;46.296;7.524;2024-01-10T01:28:12;95271.94;;;3.26;57.55
21182;BME280;10749;46.296;7.524;2024-01-10T01:30:37;95269.81;;;3.20;57.55
21182;BME280;10749;46.296;7.524;2024-01-10T01:33:04;95273.53;;;3.17;57.56
21182;BME280;10749;46.296;7.524;2024-01-10T01:35:30;95280.41;;;3.18;57.51
21182;BME280;10749;46.296;7.524;2024-01-10T01:37:55;95285.78;;;3.17;57.46
21182;BME280;10749;46.296;7.524;2024-01-10T01:40:20;95283.63;;;3.11;57.01
21182;BME280;10749;46.296;7.524;2024-01-10T01:42:46;95288.44;;;3.06;57.70
21182;BME280;10749;46.296;7.524;2024-01-10T01:45:12;95287.00;;;3.02;57.29
21182;BME280;10749;46.296;7.524;2024-01-10T01:47:39;95284.63;;;2.99;57.51
21182;BME280;10749;46.296;7.524;2024-01-10T01:50:05;95289.03;;;2.98;57.56
21182;BME280;10749;46.296;7.524;2024-01-10T01:52:31;95293.19;;;3.01;57.66
21182;BME280;10749;46.296;7.524;2024-01-10T01:54:56;95289.16;;;2.97;57.85
21182;BME280;10749;46.296;7.524;2024-01-10T01:57:22;95283.56;;;3.01;57.76
21182;BME280;10749;46.296;7.524;2024-01-10T01:59:47;95288.78;;;3.01;57.59
21182;BME280;10749;46.296;7.524;2024-01-10T02:02:14;95295.34;;;2.96;57.58
21182;BME280;10749;46.296;7.524;2024-01-10T02:04:42;95292.25;;;2.91;57.59
21182;BME280;10749;46.296;7.524;2024-01-10T02:07:07;95283.72;;;2.89;57.70
21182;BME280;10749;46.296;7.524;2024-01-10T02:09:32;95283.47;;;2.92;57.80
21182;BME280;10749;46.296;7.524;2024-01-10T02:11:58;95284.88;;;2.96;57.77
21182;BME280;10749;46.296;7.524;2024-01-10T02:14:23;95287.50;;;2.96;57.88
21182;BME280;10749;46.296;7.524;2024-01-10T02:16:49;95285.13;;;2.93;57.92
21182;BME280;10749;46.296;7.524;2024-01-10T02:19:21;95285.72;;;2.96;58.05
21182;BME280;10749;46.296;7.524;2024-01-10T02:21:47;95290.09;;;2.96;57.97
21182;BME280;10749;46.296;7.524;2024-01-10T02:24:13;95299.03;;;2.93;57.91
21182;BME280;10749;46.296;7.524;2024-01-10T02:26:39;95298.47;;;2.90;57.93
21182;BME280;10749;46.296;7.524;2024-01-10T02:29:04;95292.19;;;2.81;57.69
21182;BME280;10749;46.296;7.524;2024-01-10T02:31:30;95309.84;;;2.89;57.85
21182;BME280;10749;46.296;7.524;2024-01-10T02:33:55;95304.97;;;2.95;57.95
21182;BME280;10749;46.296;7.524;2024-01-10T02:36:20;95300.56;;;2.96;58.01
21182;BME280;10749;46.296;7.524;2024-01-10T02:38:45;95293.66;;;2.95;57.94
21182;BME280;10749;46.296;7.524;2024-01-10T02:41:12;95296.88;;;2.98;58.00
21182;BME280;10749;46.296;7.524;2024-01-10T02:43:37;95300.81;;;2.93;58.16
21182;BME280;10749;46.296;7.524;2024-01-10T02:46:03;95299.97;;;2.92;58.30
21182;BME280;10749;46.296;7.524;2024-01-10T02:48:28;95300.31;;;2.99;57.99
21182;BME280;10749;46.296;7.524;2024-01-10T02:50:53;95303.06;;;2.97;58.10
21182;BME280;10749;46.296;7.524;2024-01-10T02:53:20;95295.34;;;2.96;58.16
21182;BME280;10749;46.296;7.524;2024-01-10T02:55:46;95299.47;;;2.98;58.15
21182;BME280;10749;46.296;7.524;2024-01-10T02:58:11;95306.53;;;2.98;58.22
21182;BME280;10749;46.296;7.524;2024-01-10T03:00:37;95297.25;;;2.94;58.29
21182;BME280;10749;46.296;7.524;2024-01-10T03:03:03;95298.06;;;2.94;58.27
21182;BME280;10749;46.296;7.524;2024-01-10T03:05:28;95303.44;;;2.93;58.26
21182;BME280;10749;46.296;7.524;2024-01-10T03:07:54;95301.06;;;2.90;58.18
21182;BME280;10749;46.296;7.524;2024-01-10T03:10:19;95302.97;;;2.88;58.29
21182;BME280;10749;46.296;7.524;2024-01-10T03:12:44;95303.31;;;2.83;58.06
21182;BME280;10749;46.296;7.524;2024-01-10T03:15:09;95311.66;;;2.77;58.28
21182;BME280;10749;46.296;7.524;2024-01-10T03:17:35;95317.13;;;2.74;58.31
21182;BME280;10749;46.296;7.524;2024-01-10T03:20:01;95312.88;;;2.73;58.35
21182;BME280;10749;46.296;7.524;2024-01-10T03:22:28;95320.69;;;2.73;58.40
21182;BME280;10749;46.296;7.524;2024-01-10T03:24:54;95306.56;;;2.64;58.43
21182;BME280;10749;46.296;7.524;2024-01-10T03:27:19;95309.41;;;2.61;58.33
21182;BME280;10749;46.296;7.524;2024-01-10T03:29:44;95305.00;;;2.62;58.47
21182;BME280;10749;46.296;7.524;2024-01-10T03:32:10;95305.59;;;2.65;58.32
21182;BME280;10749;46.296;7.524;2024-01-10T03:34:35;95300.75;;;2.61;58.50
21182;BME280;10749;46.296;7.524;2024-01-10T03:37:01;95302.53;;;2.60;58.67
21182;BME280;10749;46.296;7.524;2024-01-10T03:39:26;95303.94;;;2.53;58.66
21182;BME280;10749;46.296;7.524;2024-01-10T03:41:51;95310.59;;;2.57;58.56
21182;BME280;10749;46.296;7.524;2024-01-10T03:44:16;95314.19;;;2.56;58.54
21182;BME280;10749;46.296;7.524;2024-01-10T03:46:42;95315.81;;;2.57;58.79
21182;BME280;10749;46.296;7.524;2024-01-10T03:49:07;95311.78;;;2.53;58.70
21182;BME280;10749;46.296;7.524;2024-01-10T03:51:33;95305.63;;;2.54;58.73
21182;BME280;10749;46.296;7.524;2024-01-10T03:53:58;95306.09;;;2.59;58.78
21182;BME280;10749;46.296;7.524;2024-01-10T03:56:23;95309.19;;;2.64;58.84
21182;BME280;10749;46.296;7.524;2024-01-10T03:58:48;95312.03;;;2.72;58.68
21182;BME280;10749;46.296;7.524;2024-01-10T04:01:14;95315.22;;;2.76;58.48
21182;BME280;10749;46.296;7.524;2024-01-10T04:03:39;95318.69;;;2.76;58.47
21182;BME280;10749;46.296;7.524;2024-01-10T04:06:07;95320.09;;;2.69;58.58
21182;BME280;10749;46.296;7.524;2024-01-10T04:08:32;95315.81;;;2.57;58.59
21182;BME280;10749;46.296;7.524;2024-01-10T04:10:58;95314.91;;;2.47;58.82
21182;BME280;10749;46.296;7.524;2024-01-10T04:13:23;95310.97;;;2.42;58.63
21182;BME280;10749;46.296;7.524;2024-01-10T04:15:48;95312.41;;;2.35;58.50
21182;BME280;10749;46.296;7.524;2024-01-10T04:18:14;95311.66;;;2.32;58.65
21182;BME280;10749;46.296;7.524;2024-01-10T04:20:39;95313.72;;;2.40;58.97
21182;BME280;10749;46.296;7.524;2024-01-10T04:23:05;95309.91;;;2.44;59.11
21182;BME280;10749;46.296;7.524;2024-01-10T04:25:30;95311.34;;;2.48;59.02
21182;BME280;10749;46.296;7.524;2024-01-10T04:27:55;95305.63;;;2.54;58.74
21182;BME280;10749;46.296;7.524;2024-01-10T04:30:22;95314.78;;;2.60;59.11
21182;BME280;10749;46.296;7.524;2024-01-10T04:32:47;95308.97;;;2.56;59.08
21182;BME280;10749;46.296;7.524;2024-01-10T04:35:13;95317.38;;;2.60;59.30
21182;BME280;10749;46.296;7.524;2024-01-10T04:37:38;95317.03;;;2.64;59.33
21182;BME280;10749;46.296;7.524;2024-01-10T04:40:04;95320.00;;;2.60;59.07
21182;BME280;10749;46.296;7.524;2024-01-10T04:42:30;95317.03;;;2.42;59.23
21182;BME280;10749;46.296;7.524;2024-01-10T04:44:56;95317.03;;;2.42;59.12
21182;BME280;10749;46.296;7.524;2024-01-10T04:47:21;95316.31;;;2.51;59.29
21182;BME280;10749;46.296;7.524;2024-01-10T04:49:46;95322.03;;;2.56;59.34
21182;BME280;10749;46.296;7.524;2024-01-10T04:52:12;95315.47;;;2.62;59.37
21182;BME280;10749;46.296;7.524;2024-01-10T04:54:37;95325.56;;;2.66;59.25
21182;BME280;10749;46.296;7.524;2024-01-10T04:57:03;95322.47;;;2.61;59.34
21182;BME280;10749;46.296;7.524;2024-01-10T04:59:28;95326.16;;;2.59;59.40
21182;BME280;10749;46.296;7.524;2024-01-10T05:01:54;95321.41;;;2.53;59.05
21182;BME280;10749;46.296;7.524;2024-01-10T05:04:19;95322.25;;;2.53;59.29
21182;BME280;10749;46.296;7.524;2024-01-10T05:06:45;95318.56;;;2.56;59.30
21182;BME280;10749;46.296;7.524;2024-01-10T05:09:10;95326.28;;;2.57;59.39
21182;BME280;10749;46.296;7.524;2024-01-10T05:11:36;95322.03;;;2.56;59.49
21182;BME280;10749;46.296;7.524;2024-01-10T05:14:02;95332.91;;;2.61;59.35
21182;BME280;10749;46.296;7.524;2024-01-10T05:16:28;95332.34;;;2.58;59.49
21182;BME280;10749;46.296;7.524;2024-01-10T05:18:53;95337.44;;;2.59;59.49
21182;BME280;10749;46.296;7.524;2024-01-10T05:21:18;95339.97;;;2.61;59.46
21182;BME280;10749;46.296;7.524;2024-01-10T05:23:44;95345.06;;;2.62;59.48
21182;BME280;10749;46.296;7.524;2024-01-10T05:26:09;95333.41;;;2.55;59.49
21182;BME280;10749;46.296;7.524;2024-01-10T05:28:35;95342.69;;;2.59;59.59
21182;BME280;10749;46.296;7.524;2024-01-10T05:31:00;95343.16;;;2.53;59.55
21182;BME280;10749;46.296;7.524;2024-01-10T05:33:26;95328.19;;;2.55;59.47
21182;BME280;10749;46.296;7.524;2024-01-10T05:35:51;95331.41;;;2.59;59.63
21182;BME280;10749;46.296;7.524;2024-01-10T05:38:17;95334.84;;;2.59;59.56
21182;BME280;10749;46.296;7.524;2024-01-10T05:40:42;95340.41;;;2.66;59.59
21182;BME280;10749;46.296;7.524;2024-01-10T05:43:07;95341.72;;;2.71;59.62
21182;BME280;10749;46.296;7.524;2024-01-10T05:45:33;95343.41;;;2.72;59.64
21182;BME280;10749;46.296;7.524;2024-01-10T05:47:58;95335.78;;;2.69;59.48
21182;BME280;10749;46.296;7.524;2024-01-10T05:50:24;95343.75;;;2.68;59.43
21182;BME280;10749;46.296;7.524;2024-01-10T05:52:49;95343.41;;;2.72;59.52
21182;BME280;10749;46.296;7.524;2024-01-10T05:55:15;95340.56;;;2.64;59.53
21182;BME280;10749;46.296;7.524;2024-01-10T05:57:40;95341.00;;;2.58;59.60
21182;BME280;10749;46.296;7.524;2024-01-10T06:00:06;95340.31;;;2.56;59.67
21182;BME280;10749;46.296;7.524;2024-01-10T06:02:39;95338.66;;;2.55;59.58
21182;BME280;10749;46.296;7.524;2024-01-10T06:05:08;95349.34;;;2.52;59.59
21182;BME280;10749;46.296;7.524;2024-01-10T06:07:34;95350.63;;;2.47;59.63
21182;BME280;10749;46.296;7.524;2024-01-10T06:10:00;95344.22;;;2.51;59.68
21182;BME280;10749;46.296;7.524;2024-01-10T06:12:26;95341.59;;;2.51;59.72
21182;BME280;10749;46.296;7.524;2024-01-10T06:14:51;95349.56;;;2.49;59.87
21182;BME280;10749;46.296;7.524;2024-01-10T06:17:17;95349.09;;;2.55;59.97
21182;BME280;10749;46.296;7.524;2024-01-10T06:19:42;95349.94;;;2.56;60.02
21182;BME280;10749;46.296;7.524;2024-01-10T06:22:07;95352.66;;;2.54;60.19
21182;BME280;10749;46.296;7.524;2024-01-10T06:24:32;95356.47;;;2.50;59.98
21182;BME280;10749;46.296;7.524;2024-01-10T06:26:57;95353.72;;;2.52;59.95
21182;BME280;10749;46.296;7.524;2024-01-10T06:29:24;95350.75;;;2.56;59.99
21182;BME280;10749;46.296;7.524;2024-01-10T06:31:49;95355.75;;;2.59;60.19
21182;BME280;10749;46.296;7.524;2024-01-10T06:34:14;95351.69;;;2.66;59.92
21182;BME280;10749;46.296;7.524;2024-01-10T06:36:40;95354.22;;;2.68;60.08
21182;BME280;10749;46.296;7.524;2024-01-10T06:39:05;95358.59;;;2.67;59.92
21182;BME280;10749;46.296;7.524;2024-01-10T06:41:30;95358.25;;;2.61;60.01
21182;BME280;10749;46.296;7.524;2024-01-10T06:43:57;95358.72;;;2.55;60.04
21182;BME280;10749;46.296;7.524;2024-01-10T06:46:22;95355.50;;;2.51;60.01
21182;BME280;10749;46.296;7.524;2024-01-10T06:48:47;95357.03;;;2.54;60.04
21182;BME280;10749;46.296;7.524;2024-01-10T06:51:13;95365.00;;;2.63;59.93
21182;BME280;10749;46.296;7.524;2024-01-10T06:53:39;95364.75;;;2.66;60.05
21182;BME280;10749;46.296;7.524;2024-01-10T06:56:05;95356.09;;;2.66;60.21
21182;BME280;10749;46.296;7.524;2024-01-10T06:58:30;95353.84;;;2.61;60.02
21182;BME280;10749;46.296;7.524;2024-01-10T07:00:56;95361.81;;;2.60;60.21
21182;BME280;10749;46.296;7.524;2024-01-10T07:03:21;95361.56;;;2.63;60.12
21182;BME280;10749;46.296;7.524;2024-01-10T07:05:46;95353.63;;;2.64;60.19
21182;BME280;10749;46.296;7.524;2024-01-10T07:08:12;95347.41;;;2.65;60.23
21182;BME280;10749;46.296;7.524;2024-01-10T07:10:37;95358.84;;;2.64;60.19
21182;BME280;10749;46.296;7.524;2024-01-10T07:13:03;95361.91;;;2.69;60.15
21182;BME280;10749;46.296;7.524;2024-01-10T07:15:29;95361.66;;;2.61;60.43
21182;BME280;10749;46.296;7.524;2024-01-10T07:17:55;95364.06;;;2.64;60.33
21182;BME280;10749;46.296;7.524;2024-01-10T07:20:20;95363.72;;;2.69;60.29
21182;BME280;10749;46.296;7.524;2024-01-10T07:22:45;95371.66;;;2.67;60.40
21182;BME280;10749;46.296;7.524;2024-01-10T07:25:10;95379.75;;;2.64;60.40
21182;BME280;10749;46.296;7.524;2024-01-10T07:27:39;95373.19;;;2.70;60.47
21182;BME280;10749;46.296;7.524;2024-01-10T07:30:06;95368.34;;;2.76;60.62
21182;BME280;10749;46.296;7.524;2024-01-10T07:32:39;95370.94;;;2.76;60.51
21182;BME280;10749;46.296;7.524;2024-01-10T07:35:04;95374.16;;;2.80;60.46
21182;BME280;10749;46.296;7.524;2024-01-10T07:37:29;95381.16;;;2.79;60.46
21182;BME280;10749;46.296;7.524;2024-01-10T07:39:55;95373.31;;;2.79;60.44
21182;BME280;10749;46.296;7.524;2024-01-10T07:42:22;95388.16;;;2.79;60.29
21182;BME280;10749;46.296;7.524;2024-01-10T07:44:47;95386.75;;;2.75;60.22
21182;BME280;10749;46.296;7.524;2024-01-10T07:47:12;95392.56;;;2.78;60.45
21182;BME280;10749;46.296;7.524;2024-01-10T07:49:38;95387.13;;;2.82;60.48
21182;BME280;10749;46.296;7.524;2024-01-10T07:52:03;95395.75;;;2.82;60.38
21182;BME280;10749;46.296;7.524;2024-01-10T07:54:29;95404.09;;;2.76;60.41
21182;BME280;10749;46.296;7.524;2024-01-10T07:56:57;95399.91;;;2.73;60.43
21182;BME280;10749;46.296;7.524;2024-01-10T07:59:22;95400.91;;;2.72;60.58
21182;BME280;10749;46.296;7.524;2024-01-10T08:01:55;95395.66;;;2.72;60.33
21182;BME280;10749;46.296;7.524;2024-01-10T08:04:25;95404.34;;;2.73;60.47
21182;BME280;10749;46.296;7.524;2024-01-10T08:06:50;95405.63;;;2.78;60.25
21182;BME280;10749;46.296;7.524;2024-01-10T08:09:16;95410.88;;;2.78;60.53
21182;BME280;10749;46.296;7.524;2024-01-10T08:11:41;95410.88;;;2.78;60.57
21182;BME280;10749;46.296;7.524;2024-01-10T08:14:06;95416.56;;;2.84;60.74
21182;BME280;10749;46.296;7.524;2024-01-10T08:16:31;95417.53;;;2.94;60.64
21182;BME280;10749;46.296;7.524;2024-01-10T08:19:00;95409.91;;;3.02;60.74
21182;BME280;10749;46.296;7.524;2024-01-10T08:21:25;95405.88;;;3.09;60.60
21182;BME280;10749;46.296;7.524;2024-01-10T08:23:50;95414.91;;;3.05;60.51
21182;BME280;10749;46.296;7.524;2024-01-10T08:26:16;95421.56;;;3.09;60.66
21182;BME280;10749;46.296;7.524;2024-01-10T08:28:41;95409.91;;;3.13;60.61
21182;BME280;10749;46.296;7.524;2024-01-10T08:31:07;95417.25;;;3.19;60.60
21182;BME280;10749;46.296;7.524;2024-01-10T08:33:33;95419.06;;;3.18;60.74
21182;BME280;10749;46.296;7.524;2024-01-10T08:35:58;95417.25;;;3.19;60.61
21182;BME280;10749;46.296;7.524;2024-01-10T08:38:24;95417.25;;;3.19;60.70
21182;BME280;10749;46.296;7.524;2024-01-10T08:40:49;95420.59;;;3.21;60.34
21182;BME280;10749;46.296;7.524;2024-01-10T08:43:14;95425.34;;;3.27;60.55
21182;BME280;10749;46.296;7.524;2024-01-10T08:45:40;95420.56;;;3.32;60.75
21182;BME280;10749;46.296;7.524;2024-01-10T08:48:05;95426.50;;;3.34;60.57
21182;BME280;10749;46.296;7.524;2024-01-10T08:50:32;95424.59;;;3.36;60.63
21182;BME280;10749;46.296;7.524;2024-01-10T08:52:59;95425.78;;;3.43;60.86
21182;BME280;10749;46.296;7.524;2024-01-10T08:55:24;95425.53;;;3.46;60.85
21182;BME280;10749;46.296;7.524;2024-01-10T08:57:49;95421.13;;;3.47;60.62
21182;BME280;10749;46.296;7.524;2024-01-10T09:00:15;95429.31;;;3.53;60.72
21182;BME280;10749;46.296;7.524;2024-01-10T09:02:41;95420.25;;;3.68;60.73
21182;BME280;10749;46.296;7.524;2024-01-10T09:05:06;95426.13;;;3.82;60.45
21182;BME280;10749;46.296;7.524;2024-01-10T09:07:35;95426.34;;;3.90;60.67
21182;BME280;10749;46.296;7.524;2024-01-10T09:10:00;95427.06;;;3.92;60.77
21182;BME280;10749;46.296;7.524;2024-01-10T09:12:26;95435.88;;;3.91;60.73
21182;BME280;10749;46.296;7.524;2024-01-10T09:14:51;95440.09;;;4.03;60.91
21182;BME280;10749;46.296;7.524;2024-01-10T09:17:17;95430.19;;;4.06;60.75
21182;BME280;10749;46.296;7.524;2024-01-10T09:19:42;95434.38;;;4.09;60.66
21182;BME280;10749;46.296;7.524;2024-01-10T09:22:07;95426.56;;;4.18;60.70
21182;BME280;10749;46.296;7.524;2024-01-10T09:24:32;95431.44;;;4.23;60.86
21182;BME280;10749;46.296;7.524;2024-01-10T09:26:58;95434.50;;;4.28;60.68
21182;BME280;10749;46.296;7.524;2024-01-10T09:29:25;95433.03;;;4.35;60.74
21182;BME280;10749;46.296;7.524;2024-01-10T09:31:53;95434.69;;;4.36;60.61
21182;BME280;10749;46.296;7.524;2024-01-10T09:34:18;95437.59;;;4.33;60.27
21182;BME280;10749;46.296;7.524;2024-01-10T09:36:44;95433.88;;;4.36;60.57
21182;BME280;10749;46.296;7.524;2024-01-10T09:39:09;95432.16;;;4.46;60.73
21182;BME280;10749;46.296;7.524;2024-01-10T09:41:42;95435.66;;;4.56;60.63
21182;BME280;10749;46.296;7.524;2024-01-10T09:44:10;95431.81;;;4.60;60.73
21182;BME280;10749;46.296;7.524;2024-01-10T09:46:37;95434.50;;;4.70;60.56
21182;BME280;10749;46.296;7.524;2024-01-10T09:49:03;95436.72;;;4.74;60.78
21182;BME280;10749;46.296;7.524;2024-01-10T09:51:30;95433.19;;;4.85;60.57
21182;BME280;10749;46.296;7.524;2024-01-10T09:53:58;95431.34;;;4.96;60.89
21182;BME280;10749;46.296;7.524;2024-01-10T09:56:26;95433.28;;;5.04;60.61
21182;BME280;10749;46.296;7.524;2024-01-10T09:58:53;95425.59;;;5.12;60.64
21182;BME280;10749;46.296;7.524;2024-01-10T10:01:20;95428.25;;;5.22;60.67
21182;BME280;10749;46.296;7.524;2024-01-10T10:03:48;95427.59;;;5.29;60.65
21182;BME280;10749;46.296;7.524;2024-01-10T10:06:14;95427.75;;;5.37;60.48
21182;BME280;10749;46.296;7.524;2024-01-10T10:08:39;95427.84;;;5.26;60.60
21182;BME280;10749;46.296;7.524;2024-01-10T10:11:07;95432.28;;;5.35;60.44
21182;BME280;10749;46.296;7.524;2024-01-10T10:13:32;95434.81;;;5.46;60.62
21182;BME280;10749;46.296;7.524;2024-01-10T10:16:00;95432.63;;;5.61;60.40
21182;BME280;10749;46.296;7.524;2024-01-10T10:18:26;95427.94;;;5.65;60.28
21182;BME280;10749;46.296;7.524;2024-01-10T10:21:09;95427.94;;;5.65;60.32
21182;BME280;10749;46.296;7.524;2024-01-10T10:23:37;95426.97;;;5.66;60.25
21182;BME280;10749;46.296;7.524;2024-01-10T10:26:10;95419.94;;;5.76;60.23
21182;BME280;10749;46.296;7.524;2024-01-10T10:28:39;95432.66;;;5.71;60.49
21182;BME280;10749;46.296;7.524;2024-01-10T10:31:05;95421.44;;;5.69;60.33
21182;BME280;10749;46.296;7.524;2024-01-10T10:33:32;95423.00;;;5.71;60.41
21182;BME280;10749;46.296;7.524;2024-01-10T10:35:57;95426.41;;;5.72;60.59
21182;BME280;10749;46.296;7.524;2024-01-10T10:38:23;95421.31;;;5.80;60.35
21182;BME280;10749;46.296;7.524;2024-01-10T10:40:48;95415.25;;;5.79;60.34
21182;BME280;10749;46.296;7.524;2024-01-10T10:43:18;95414.69;;;5.76;60.52
21182;BME280;10749;46.296;7.524;2024-01-10T10:45:48;95405.03;;;5.86;60.33
21182;BME280;10749;46.296;7.524;2024-01-10T10:48:17;95403.66;;;6.01;60.49
21182;BME280;10749;46.296;7.524;2024-01-10T10:50:50;95405.63;;;6.09;60.30
21182;BME280;10749;46.296;7.524;2024-01-10T10:53:20;95404.50;;;6.11;60.28
21182;BME280;10749;46.296;7.524;2024-01-10T10:55:47;95406.56;;;6.17;60.39
21182;BME280;10749;46.296;7.524;2024-01-10T10:58:13;95403.38;;;6.23;60.18
21182;BME280;10749;46.296;7.524;2024-01-10T11:00:39;95403.38;;;6.23;60.10
21182;BME280;10749;46.296;7.524;2024-01-10T11:03:08;95406.16;;;6.22;60.11
21182;BME280;10749;46.296;7.524;2024-01-10T11:05:35;95403.69;;;6.20;59.92
21182;BME280;10749;46.296;7.524;2024-01-10T11:08:07;95402.84;;;6.20;60.14
21182;BME280;10749;46.296;7.524;2024-01-10T11:10:37;95404.78;;;6.08;60.06
21182;BME280;10749;46.296;7.524;2024-01-10T11:16:23;95405.47;;;6.29;60.09
21182;BME280;10749;46.296;7.524;2024-01-10T11:24:47;95395.88;;;6.47;59.97
21182;BME280;10749;46.296;7.524;2024-01-10T11:27:14;95394.22;;;6.46;59.96
21182;BME280;10749;46.296;7.524;2024-01-10T11:29:41;95397.97;;;6.54;59.92
21182;BME280;10749;46.296;7.524;2024-01-10T11:32:12;95396.13;;;6.64;59.93
21182;BME280;10749;46.296;7.524;2024-01-10T11:34:49;95395.56;;;6.70;60.02
21182;BME280;10749;46.296;7.524;2024-01-10T11:37:14;95391.38;;;6.77;59.70
21182;BME280;10749;46.296;7.524;2024-01-10T11:39:41;95389.47;;;6.79;59.91
21182;BME280;10749;46.296;7.524;2024-01-10T11:42:08;95378.63;;;6.82;59.82
21182;BME280;10749;46.296;7.524;2024-01-10T11:44:34;95375.56;;;6.86;59.72
21182;BME280;10749;46.296;7.524;2024-01-10T11:47:13;95374.75;;;6.86;59.82
21182;BME280;10749;46.296;7.524;2024-01-10T11:49:40;95383.91;;;6.82;59.69
21182;BME280;10749;46.296;7.524;2024-01-10T11:52:05;95378.66;;;6.72;59.65
21182;BME280;10749;46.296;7.524;2024-01-10T11:54:44;95363.94;;;6.79;59.68
21182;BME280;10749;46.296;7.524;2024-01-10T11:57:11;95370.84;;;6.90;59.59
21182;BME280;10749;46.296;7.524;2024-01-10T11:59:38;95365.81;;;6.96;59.65
21182;BME280;10749;46.296;7.524;2024-01-10T12:02:05;95366.97;;;6.94;59.56
21182;BME280;10749;46.296;7.524;2024-01-10T12:04:32;95367.09;;;6.92;59.42
21182;BME280;10749;46.296;7.524;2024-01-10T12:06:57;95362.31;;;6.78;59.47
21182;BME280;10749;46.296;7.524;2024-01-10T12:09:23;95356.06;;;6.79;59.47
21182;BME280;10749;46.296;7.524;2024-01-10T12:11:50;95353.41;;;6.89;59.50
21182;BME280;10749;46.296;7.524;2024-01-10T12:14:15;95355.84;;;7.00;59.42
21182;BME280;10749;46.296;7.524;2024-01-10T12:16:40;95356.34;;;7.13;59.82
21182;BME280;10749;46.296;7.524;2024-01-10T12:19:05;95352.81;;;7.22;59.54
21182;BME280;10749;46.296;7.524;2024-01-10T12:21:31;95344.63;;;7.25;59.31
21182;BME280;10749;46.296;7.524;2024-01-10T12:23:56;95341.03;;;7.26;59.46
21182;BME280;10749;46.296;7.524;2024-01-10T12:26:22;95337.13;;;7.30;59.23
21182;BME280;10749;46.296;7.524;2024-01-10T12:28:55;95340.72;;;7.29;59.32
21182;BME280;10749;46.296;7.524;2024-01-10T12:31:21;95338.25;;;7.28;59.47
21182;BME280;10749;46.296;7.524;2024-01-10T12:33:50;95339.34;;;7.25;59.18
21182;BME280;10749;46.296;7.524;2024-01-10T12:36:17;95335.13;;;7.15;59.16
21182;BME280;10749;46.296;7.524;2024-01-10T12:38:43;95329.97;;;7.23;59.06
21182;BME280;10749;46.296;7.524;2024-01-10T12:41:09;95329.34;;;7.29;59.25
21182;BME280;10749;46.296;7.524;2024-01-10T12:43:35;95332.38;;;7.34;59.03
21182;BME280;10749;46.296;7.524;2024-01-10T12:48:29;95310.63;;;7.14;58.92
21182;BME280;10749;46.296;7.524;2024-01-10T12:50:55;95310.97;;;7.02;58.94
21182;BME280;10749;46.296;7.524;2024-01-10T12:53:20;95305.91;;;7.08;58.89
21182;BME280;10749;46.296;7.524;2024-01-10T12:55:46;95307.41;;;7.20;58.88
21182;BME280;10749;46.296;7.524;2024-01-10T12:58:11;95302.59;;;7.33;58.95
21182;BME280;10749;46.296;7.524;2024-01-10T13:00:36;95299.06;;;7.42;58.92
21182;BME280;10749;46.296;7.524;2024-01-10T13:03:02;95301.25;;;7.47;59.00
21182;BME280;10749;46.296;7.524;2024-01-10T13:05:28;95307.03;;;7.51;59.14
21182;BME280;10749;46.296;7.524;2024-01-10T13:07:54;95300.13;;;7.50;58.69
21182;BME280;10749;46.296;7.524;2024-01-10T13:10:20;95295.97;;;7.47;58.87
21182;BME280;10749;46.296;7.524;2024-01-10T13:12:45;95299.59;;;7.46;58.66
21182;BME280;10749;46.296;7.524;2024-01-10T13:15:12;95290.78;;;7.37;58.68